Time;durP1;ratioP1;P1;durP2;ratioP2;P2;SDS_P1;SDS_P2;PMS_P1;PMS_P2;Temp;Humidity;BMP_temperature;BMP_pressure;BME280_temperature;BME280_humidity;BME280_pressure;Samples;Min_cycle;Max_cycle;Signal;HPM_P1;HPM_P2
2023/09/26 00:00:35;;;;;;;4.75;2.60;;;;;;;11.68;100.00;101373.97;689065;28;888;-65
2023/09/26 00:00:55;;;;;;;5.03;2.53;;;;;;;11.69;100.00;101375.72;685475;28;4386;-65
2023/09/26 00:01:16;;;;;;;4.88;2.80;;;;;;;11.66;100.00;101376.59;685617;28;1210;-65
2023/09/26 00:01:36;;;;;;;4.40;2.80;;;;;;;11.64;100.00;101372.22;685959;28;889;-65
2023/09/26 00:01:56;;;;;;;4.67;2.70;;;;;;;11.63;100.00;101370.47;686280;28;1973;-65
2023/09/26 00:02:17;;;;;;;4.60;2.70;;;;;;;11.65;100.00;101374.84;687478;28;864;-65
2023/09/26 00:02:37;;;;;;;4.68;2.70;;;;;;;11.66;100.00;101375.69;685694;28;1236;-65
2023/09/26 00:02:57;;;;;;;6.20;2.80;;;;;;;11.66;100.00;101375.69;688035;28;1194;-65
2023/09/26 00:03:18;;;;;;;4.50;2.63;;;;;;;11.65;100.00;101374.84;692669;28;832;-65
2023/09/26 00:03:40;;;;;;;4.65;2.78;;;;;;;11.66;100.00;101378.31;692967;28;1528;-65
2023/09/26 00:04:00;;;;;;;4.65;2.83;;;;;;;11.67;100.00;101374.84;691398;28;4286;-65
2023/09/26 00:04:21;;;;;;;4.60;2.90;;;;;;;11.66;100.00;101376.59;692998;28;896;-65
2023/09/26 00:04:42;;;;;;;4.35;2.65;;;;;;;11.67;100.00;101378.34;692359;28;972;-65
2023/09/26 00:05:09;;;;;;;4.47;2.70;;;;;;;11.68;100.00;101381.84;692155;28;927;-65
2023/09/26 00:05:32;;;;;;;4.88;2.70;;;;;;;11.68;100.00;101373.97;692516;28;774;-65
2023/09/26 00:05:54;;;;;;;4.35;2.58;;;;;;;11.69;100.00;101376.59;693171;28;1421;-65
2023/09/26 00:06:22;;;;;;;4.65;2.63;;;;;;;11.71;100.00;101377.50;688548;28;1902;-65
2023/09/26 00:06:44;;;;;;;5.35;2.90;;;;;;;11.71;100.00;101382.72;689244;28;865;-65
2023/09/26 00:07:04;;;;;;;4.60;2.70;;;;;;;11.69;100.00;101373.97;688521;28;4429;-65
2023/09/26 00:07:25;;;;;;;4.53;2.70;;;;;;;11.68;100.00;101373.97;689931;28;1977;-65
2023/09/26 00:07:45;;;;;;;5.00;2.97;;;;;;;11.69;100.00;101376.59;690190;28;757;-65
2023/09/26 00:08:07;;;;;;;4.72;3.00;;;;;;;11.69;100.00;101378.34;690703;28;2379;-65
2023/09/26 00:08:27;;;;;;;5.40;2.90;;;;;;;11.69;100.00;101375.72;690083;28;1007;-65
2023/09/26 00:08:48;;;;;;;5.30;2.90;;;;;;;11.70;100.00;101380.97;687477;28;1316;-65
2023/09/26 00:09:09;;;;;;;4.73;2.70;;;;;;;11.69;100.00;101376.59;686341;28;1801;-65
2023/09/26 00:09:30;;;;;;;4.80;2.80;;;;;;;11.70;100.00;101366.97;687507;28;988;-64
2023/09/26 00:09:50;;;;;;;4.45;2.88;;;;;;;11.72;100.00;101378.34;687006;28;4311;-65
2023/09/26 00:10:11;;;;;;;4.40;2.80;;;;;;;11.72;100.00;101373.97;686509;28;1517;-65
2023/09/26 00:10:32;;;;;;;4.20;2.83;;;;;;;11.73;100.00;101378.34;690028;28;1419;-65
2023/09/26 00:10:53;;;;;;;4.68;2.90;;;;;;;11.72;100.00;101371.34;692595;28;1256;-65
2023/09/26 00:11:14;;;;;;;5.50;3.00;;;;;;;11.73;100.00;101382.72;690719;28;1723;-65
2023/09/26 00:11:34;;;;;;;4.88;2.78;;;;;;;11.74;100.00;101379.22;692610;28;1146;-65
2023/09/26 00:11:55;;;;;;;5.10;2.70;;;;;;;11.75;100.00;101379.25;693202;28;849;-65
2023/09/26 00:12:15;;;;;;;4.38;2.75;;;;;;;11.76;100.00;101380.09;691747;28;2032;-65
2023/09/26 00:12:36;;;;;;;3.87;2.67;;;;;;;11.76;100.00;101383.59;692710;28;921;-65
2023/09/26 00:12:57;;;;;;;4.38;2.72;;;;;;;11.77;100.00;101381.88;691887;28;4557;-65
2023/09/26 00:13:17;;;;;;;4.20;2.60;;;;;;;11.77;100.00;101389.72;692951;28;1212;-65
2023/09/26 00:13:38;;;;;;;5.00;3.30;;;;;;;11.78;100.00;101380.97;692888;28;1266;-65
2023/09/26 00:13:59;;;;;;;4.60;2.80;;;;;;;11.78;100.00;101382.72;692047;28;2416;-65
2023/09/26 00:14:19;;;;;;;4.10;2.72;;;;;;;11.78;100.00;101385.34;693288;28;829;-65
2023/09/26 00:14:40;;;;;;;5.33;2.83;;;;;;;11.76;100.00;101380.97;692406;28;896;-65
2023/09/26 00:15:01;;;;;;;5.05;3.00;;;;;;;11.76;100.00;101391.44;692179;28;1435;-65
2023/09/26 00:15:21;;;;;;;4.50;2.88;;;;;;;11.75;100.00;101387.09;692874;28;1239;-63
2023/09/26 00:15:42;;;;;;;4.77;2.80;;;;;;;11.75;100.00;101386.22;693123;28;770;-65
2023/09/26 00:16:03;;;;;;;4.20;2.60;;;;;;;11.74;100.00;101384.44;691491;28;4356;-65
2023/09/26 00:16:23;;;;;;;4.50;2.58;;;;;;;11.74;100.00;101384.44;692702;28;5048;-65
2023/09/26 00:16:46;;;;;;;5.20;2.80;;;;;;;11.75;100.00;101386.22;692754;28;1338;-65
2023/09/26 00:17:07;;;;;;;4.50;2.70;;;;;;;11.75;100.00;101375.72;691649;28;1756;-65
2023/09/26 00:17:27;;;;;;;4.30;2.83;;;;;;;11.76;100.00;101382.72;692672;28;869;-65
2023/09/26 00:17:48;;;;;;;4.53;2.60;;;;;;;11.77;100.00;101381.88;692890;28;967;-65
2023/09/26 00:18:08;;;;;;;5.10;2.50;;;;;;;11.76;100.00;101385.34;691634;28;1107;-65
2023/09/26 00:18:29;;;;;;;4.68;2.70;;;;;;;11.75;100.00;101379.25;693194;28;1263;-65
2023/09/26 00:18:49;;;;;;;4.83;2.90;;;;;;;11.75;100.00;101380.97;693025;28;944;-65
2023/09/26 00:19:09;;;;;;;5.32;2.97;;;;;;;11.74;100.00;101384.44;690852;28;4476;-65
2023/09/26 00:19:30;;;;;;;4.97;2.90;;;;;;;11.72;100.00;101381.84;693099;28;1034;-65
2023/09/26 00:19:50;;;;;;;4.40;2.70;;;;;;;11.72;100.00;101379.22;691801;28;1517;-65
2023/09/26 00:20:12;;;;;;;4.53;2.70;;;;;;;11.73;100.00;101382.72;691270;28;1830;-65
2023/09/26 00:20:35;;;;;;;5.00;3.00;;;;;;;11.72;100.00;101381.84;693587;28;820;-65
2023/09/26 00:20:55;;;;;;;4.72;3.05;;;;;;;11.71;100.00;101379.22;693107;28;936;-65
2023/09/26 00:21:16;;;;;;;5.03;2.73;;;;;;;11.70;100.00;101382.69;691968;28;2454;-65
2023/09/26 00:21:36;;;;;;;4.05;2.60;;;;;;;11.69;100.00;101381.84;692467;28;1275;-65
2023/09/26 00:21:56;;;;;;;4.20;2.63;;;;;;;11.69;100.00;101380.97;692719;28;4440;-65
2023/09/26 00:22:17;;;;;;;4.63;2.70;;;;;;;11.67;100.00;101385.31;693034;28;1186;-65
2023/09/26 00:22:37;;;;;;;5.78;2.85;;;;;;;11.66;100.00;101381.84;693314;28;881;-65
2023/09/26 00:22:57;;;;;;;4.87;3.07;;;;;;;11.68;100.00;101384.47;691878;28;1210;-65
2023/09/26 00:23:18;;;;;;;4.57;2.73;;;;;;;11.67;100.00;101383.59;691372;28;1191;-65
2023/09/26 00:23:38;;;;;;;4.50;2.63;;;;;;;11.67;100.00;101382.69;693109;28;940;-65
2023/09/26 00:23:59;;;;;;;5.10;2.80;;;;;;;11.66;100.00;101383.56;691947;28;2786;-65
2023/09/26 00:24:21;;;;;;;4.93;2.92;;;;;;;11.66;100.00;101380.94;692984;28;852;-65
2023/09/26 00:24:41;;;;;;;5.68;2.75;;;;;;;11.66;100.00;101387.06;692019;28;912;-65
2023/09/26 00:25:01;;;;;;;4.80;2.77;;;;;;;11.66;100.00;101387.06;691324;28;4350;-65
2023/09/26 00:25:25;;;;;;;4.35;2.50;;;;;;;11.63;100.00;101383.56;692966;28;814;-65
2023/09/26 00:25:45;;;;;;;4.20;2.60;;;;;;;11.62;100.00;101384.47;692690;28;817;-65
2023/09/26 00:26:07;;;;;;;5.18;2.80;;;;;;;11.61;100.00;101386.19;692281;28;1732;-65
2023/09/26 00:26:28;;;;;;;5.05;2.85;;;;;;;11.62;100.00;101385.31;692930;28;1247;-65
2023/09/26 00:26:49;;;;;;;4.72;2.88;;;;;;;11.61;100.00;101380.94;693111;28;861;-65
2023/09/26 00:27:09;;;;;;;5.10;2.90;;;;;;;11.60;100.00;101381.81;691586;28;1772;-65
2023/09/26 00:27:29;;;;;;;4.95;2.70;;;;;;;11.60;100.00;101379.19;692674;28;2035;-65
2023/09/26 00:27:50;;;;;;;5.17;2.87;;;;;;;11.60;100.00;101387.03;692866;28;912;-65
2023/09/26 00:28:11;;;;;;;5.03;2.80;;;;;;;11.60;100.00;101392.28;690190;28;4561;-65
2023/09/26 00:28:31;;;;;;;5.20;2.80;;;;;;;11.59;100.00;101385.31;692604;28;1175;-65
2023/09/26 00:28:52;;;;;;;4.93;2.90;;;;;;;11.58;100.00;101384.41;689951;28;1095;-65
2023/09/26 00:29:12;;;;;;;5.45;3.10;;;;;;;11.56;100.00;101380.94;688565;28;1981;-65
2023/09/26 00:29:33;;;;;;;4.80;3.10;;;;;;;11.56;100.00;101386.19;689982;28;817;-65
2023/09/26 00:29:54;;;;;;;4.28;2.75;;;;;;;11.56;100.00;101380.03;689686;28;1329;-65
2023/09/26 00:30:14;;;;;;;4.73;2.90;;;;;;;11.56;100.00;101387.91;685030;28;1731;-65
2023/09/26 00:30:37;;;;;;;4.47;2.77;;;;;;;11.54;100.00;101387.91;686445;28;1647;-65
2023/09/26 00:30:59;;;;;;;4.97;2.70;;;;;;;11.53;100.00;101380.03;688472;28;4497;-65
2023/09/26 00:31:20;;;;;;;4.68;2.80;;;;;;;11.55;100.00;101386.19;688562;28;1284;-65
2023/09/26 00:31:40;;;;;;;5.60;2.90;;;;;;;11.54;100.00;101385.28;687941;28;1641;-65
2023/09/26 00:32:01;;;;;;;5.60;3.03;;;;;;;11.53;100.00;101386.19;688394;28;1520;-65
2023/09/26 00:32:23;;;;;;;4.55;2.85;;;;;;;11.52;100.00;101383.53;690665;28;1460;-65
2023/09/26 00:32:44;;;;;;;4.55;2.95;;;;;;;11.50;100.00;101380.91;691891;28;1428;-65
2023/09/26 00:33:04;;;;;;;4.75;2.72;;;;;;;11.51;100.00;101384.41;691252;28;2387;-65
2023/09/26 00:33:25;;;;;;;5.07;2.80;;;;;;;11.48;100.00;101380.03;688502;28;1451;-65
2023/09/26 00:33:45;;;;;;;4.93;2.93;;;;;;;11.46;100.00;101381.75;692101;28;1176;-65
2023/09/26 00:34:05;;;;;;;4.45;2.75;;;;;;;11.45;100.00;101377.44;690739;28;4330;-65
2023/09/26 00:34:26;;;;;;;4.10;2.87;;;;;;;11.46;100.00;101381.75;691537;28;1071;-65
2023/09/26 00:34:46;;;;;;;3.92;2.70;;;;;;;11.44;100.00;101385.25;690162;28;1355;-65
2023/09/26 00:35:10;;;;;;;4.27;2.70;;;;;;;11.41;100.00;101376.53;688634;28;1862;-65
2023/09/26 00:35:30;;;;;;;4.78;2.80;;;;;;;11.41;100.00;101375.66;688880;28;999;-65
2023/09/26 00:35:51;;;;;;;5.43;2.90;;;;;;;11.38;100.00;101380.88;691047;28;1152;-65
2023/09/26 00:36:12;;;;;;;5.53;2.67;;;;;;;11.37;100.00;101372.16;689956;28;2389;-65
2023/09/26 00:36:33;;;;;;;6.15;3.05;;;;;;;11.40;100.00;101379.16;693210;28;920;-65
2023/09/26 00:36:54;;;;;;;4.93;2.87;;;;;;;11.35;100.00;101376.53;688624;28;4697;-65
2023/09/26 00:37:16;;;;;;;4.13;2.47;;;;;;;11.35;100.00;101375.63;687690;28;2693;-65
2023/09/26 00:37:36;;;;;;;4.17;2.80;;;;;;;11.36;100.00;101374.78;688814;28;1330;-65
2023/09/26 00:37:59;;;;;;;4.70;2.70;;;;;;;11.37;100.00;101373.91;688614;28;1381;-65
2023/09/26 00:38:19;;;;;;;6.30;3.15;;;;;;;11.35;100.00;101381.75;689295;28;2031;-65
2023/09/26 00:38:39;;;;;;;5.80;2.90;;;;;;;11.33;100.00;101377.38;689179;28;805;-65
2023/09/26 00:39:00;;;;;;;4.20;2.70;;;;;;;11.31;100.00;101381.72;688574;28;5560;-65
2023/09/26 00:39:21;;;;;;;4.85;2.65;;;;;;;11.30;100.00;101378.25;692032;28;775;-65
2023/09/26 00:39:41;;;;;;;5.25;2.75;;;;;;;11.29;100.00;101376.47;692920;28;873;-65
2023/09/26 00:40:02;;;;;;;4.47;2.60;;;;;;;11.31;100.00;101376.47;690209;28;4428;-65
2023/09/26 00:40:23;;;;;;;5.07;2.80;;;;;;;11.31;100.00;101377.38;692412;28;1148;-65
2023/09/26 00:40:43;;;;;;;5.25;2.90;;;;;;;11.31;100.00;101379.09;692858;28;1290;-65
2023/09/26 00:41:06;;;;;;;4.45;2.92;;;;;;;11.27;100.00;101382.56;691118;28;1867;-65
2023/09/26 00:41:26;;;;;;;4.38;2.80;;;;;;;11.25;100.00;101380.81;693032;28;1215;-65
2023/09/26 00:41:47;;;;;;;4.82;3.00;;;;;;;11.22;100.00;101383.44;691320;28;1187;-65
2023/09/26 00:42:07;;;;;;;4.53;2.70;;;;;;;11.22;100.00;101378.19;685789;28;2024;-65
2023/09/26 00:42:28;;;;;;;4.97;2.70;;;;;;;11.20;100.00;101377.34;687078;28;1496;-65
2023/09/26 00:42:49;;;;;;;5.20;2.90;;;;;;;11.20;100.00;101371.19;689445;28;968;-65
2023/09/26 00:43:09;;;;;;;4.72;2.90;;;;;;;11.19;100.00;101380.81;688461;28;4612;-65
2023/09/26 00:43:30;;;;;;;4.93;2.97;;;;;;;11.17;100.00;101377.31;688459;28;1338;-65
2023/09/26 00:43:53;;;;;;;4.78;3.08;;;;;;;11.19;100.00;101379.94;691373;28;857;-65
2023/09/26 00:44:13;;;;;;;5.00;3.20;;;;;;;11.19;100.00;101380.81;687809;28;2028;-65
2023/09/26 00:44:34;;;;;;;4.50;3.00;;;;;;;11.19;100.00;101378.19;686754;28;1256;-65
2023/09/26 00:44:55;;;;;;;4.70;2.80;;;;;;;11.20;100.00;101373.81;687538;28;1213;-65
2023/09/26 00:45:15;;;;;;;5.00;2.88;;;;;;;11.17;100.00;101368.59;685678;28;2294;-65
2023/09/26 00:45:36;;;;;;;5.25;2.90;;;;;;;11.16;100.00;101377.28;684922;28;1402;-64
2023/09/26 00:45:59;;;;;;;5.60;3.10;;;;;;;11.12;100.00;101368.56;683810;28;4605;-65
2023/09/26 00:46:20;;;;;;;4.88;3.10;;;;;;;11.12;100.00;101376.44;681572;29;1265;-65
2023/09/26 00:46:41;;;;;;;4.90;3.10;;;;;;;11.11;100.00;101372.06;682662;28;1157;-65
2023/09/26 00:47:02;;;;;;;4.95;3.05;;;;;;;11.12;100.00;101370.28;684263;28;2514;-65
2023/09/26 00:47:22;;;;;;;4.87;3.03;;;;;;;11.13;100.00;101372.06;686505;28;1918;-65
2023/09/26 00:47:43;;;;;;;5.45;3.10;;;;;;;11.14;100.00;101369.44;690150;28;1374;-65
2023/09/26 00:48:05;;;;;;;4.93;3.00;;;;;;;11.14;100.00;101374.66;688998;28;2145;-65
2023/09/26 00:48:26;;;;;;;5.60;3.10;;;;;;;11.11;100.00;101372.06;691277;28;785;-65
2023/09/26 00:48:46;;;;;;;4.85;3.00;;;;;;;11.10;100.00;101370.28;692931;28;722;-65
2023/09/26 00:49:09;;;;;;;4.50;2.90;;;;;;;11.10;100.00;101374.66;688542;28;4580;-65
2023/09/26 00:49:30;;;;;;;5.35;3.10;;;;;;;11.10;100.00;101369.44;686449;28;1021;-65
2023/09/26 00:49:50;;;;;;;5.55;3.22;;;;;;;11.08;100.00;101367.66;687758;28;995;-65
2023/09/26 00:50:14;;;;;;;5.10;3.30;;;;;;;11.09;100.00;101368.56;686539;28;1828;-65
2023/09/26 00:50:35;;;;;;;4.93;3.00;;;;;;;11.07;100.00;101365.06;686405;28;1581;-65
2023/09/26 00:50:56;;;;;;;5.60;3.20;;;;;;;11.04;100.00;101373.75;688565;28;1310;-65
2023/09/26 00:51:17;;;;;;;5.25;3.20;;;;;;;11.04;100.00;101365.91;689681;28;1898;-65
2023/09/26 00:51:38;;;;;;;6.20;3.53;;;;;;;11.05;100.00;101369.41;692569;28;1197;-65
2023/09/26 00:52:00;;;;;;;4.97;3.20;;;;;;;11.06;100.00;101363.28;692494;28;4402;-66
2023/09/26 00:52:21;;;;;;;5.47;3.60;;;;;;;11.05;100.00;101369.41;689438;28;1002;-65
2023/09/26 00:52:43;;;;;;;5.83;3.60;;;;;;;11.07;100.00;101363.28;689269;28;1381;-65
2023/09/26 00:53:04;;;;;;;5.72;3.40;;;;;;;11.10;100.00;101369.44;688397;28;895;-65
2023/09/26 00:53:26;;;;;;;5.93;3.40;;;;;;;11.07;100.00;101370.28;689281;28;931;-65
2023/09/26 00:53:47;;;;;;;6.30;3.50;;;;;;;11.06;100.00;101372.03;686566;28;813;-65
2023/09/26 00:54:10;;;;;;;4.87;3.50;;;;;;;11.05;100.00;101372.91;687232;28;1128;-65
2023/09/26 00:54:31;;;;;;;5.18;3.50;;;;;;;11.05;100.00;101372.03;686638;28;1380;-65
2023/09/26 00:54:52;;;;;;;5.03;3.15;;;;;;;11.05;100.00;101374.66;687104;28;4411;-65
2023/09/26 00:55:16;;;;;;;4.85;3.35;;;;;;;11.04;100.00;101375.50;688838;28;2121;-65
2023/09/26 00:55:38;;;;;;;4.80;3.45;;;;;;;11.01;100.00;101380.75;688413;28;952;-65
2023/09/26 00:55:59;;;;;;;5.88;3.63;;;;;;;10.99;100.00;101367.63;688447;28;1535;-65
2023/09/26 00:56:19;;;;;;;6.68;3.60;;;;;;;11.00;100.00;101371.13;689124;28;1063;-65
2023/09/26 00:56:40;;;;;;;6.60;3.50;;;;;;;11.00;100.00;101374.59;689440;28;814;-65
2023/09/26 00:57:03;;;;;;;7.22;3.58;;;;;;;11.00;100.00;101373.75;686622;28;1729;-65
2023/09/26 00:57:23;;;;;;;5.70;3.60;;;;;;;11.00;100.00;101372.00;689637;28;1255;-65
2023/09/26 00:57:45;;;;;;;5.07;3.40;;;;;;;11.00;100.00;101369.38;689039;28;965;-65
2023/09/26 00:58:05;;;;;;;5.97;3.60;;;;;;;11.00;100.00;101371.13;685372;28;4407;-65
2023/09/26 00:58:27;;;;;;;5.10;3.40;;;;;;;11.01;100.00;101372.88;685535;28;1310;-65
2023/09/26 00:58:47;;;;;;;5.03;3.28;;;;;;;11.01;100.00;101375.50;686338;28;980;-65
2023/09/26 00:59:08;;;;;;;5.07;3.30;;;;;;;10.99;100.00;101372.84;685931;28;1263;-65
2023/09/26 00:59:31;;;;;;;5.37;3.43;;;;;;;10.99;100.00;101377.22;685938;28;1290;-65
2023/09/26 00:59:52;;;;;;;5.57;3.50;;;;;;;10.97;100.00;101373.75;686894;28;969;-65
2023/09/26 01:00:15;;;;;;;6.13;3.43;;;;;;;10.97;100.00;101373.75;688554;28;1975;-65
2023/09/26 01:00:35;;;;;;;6.28;3.50;;;;;;;10.96;100.00;101375.47;692575;28;1263;-65
2023/09/26 01:00:56;;;;;;;5.75;3.45;;;;;;;10.95;100.00;101371.13;692093;28;4276;-65
2023/09/26 01:01:17;;;;;;;5.10;3.70;;;;;;;10.96;100.00;101379.84;689669;28;2371;-65
2023/09/26 01:01:39;;;;;;;4.68;3.38;;;;;;;10.97;100.00;101377.22;692968;28;880;-65
2023/09/26 01:02:00;;;;;;;5.25;3.42;;;;;;;10.95;100.00;101375.47;692708;28;1268;-65
2023/09/26 01:02:22;;;;;;;5.45;3.40;;;;;;;10.93;100.00;101378.06;692181;28;1728;-65
2023/09/26 01:02:42;;;;;;;5.32;3.45;;;;;;;10.93;100.00;101370.22;690130;28;1231;-65
2023/09/26 01:03:04;;;;;;;5.07;3.22;;;;;;;10.93;100.00;101377.22;688298;28;1782;-65
2023/09/26 01:03:24;;;;;;;6.30;3.08;;;;;;;10.91;100.00;101374.59;690304;28;897;-65
2023/09/26 01:03:45;;;;;;;5.03;3.27;;;;;;;10.90;100.00;101380.69;690098;28;1214;-65
2023/09/26 01:04:06;;;;;;;4.70;3.00;;;;;;;10.89;100.00;101385.00;687226;28;4368;-65
2023/09/26 01:04:27;;;;;;;6.07;3.45;;;;;;;10.89;100.00;101377.16;685711;28;1313;-65
2023/09/26 01:04:48;;;;;;;5.28;3.47;;;;;;;10.88;100.00;101378.06;688700;28;1146;-65
2023/09/26 01:05:09;;;;;;;5.55;3.50;;;;;;;10.88;100.00;101377.16;684934;28;1752;-65
2023/09/26 01:05:29;;;;;;;5.20;3.50;;;;;;;10.87;100.00;101378.06;687320;28;1244;-65
2023/09/26 01:05:50;;;;;;;5.37;3.50;;;;;;;10.88;100.00;101380.69;685858;28;1569;-65
2023/09/26 01:06:10;;;;;;;5.40;3.40;;;;;;;10.86;100.00;101374.53;686009;28;2397;-65
2023/09/26 01:06:31;;;;;;;5.10;3.37;;;;;;;10.87;100.00;101378.06;688243;28;1838;-65
2023/09/26 01:06:51;;;;;;;5.30;3.45;;;;;;;10.86;100.00;101371.06;688020;28;4338;-65
2023/09/26 01:07:12;;;;;;;5.13;3.53;;;;;;;10.84;100.00;101373.69;686788;28;1804;-65
2023/09/26 01:07:34;;;;;;;5.90;3.40;;;;;;;10.84;100.00;101378.91;688488;28;1906;-65
2023/09/26 01:07:55;;;;;;;5.85;3.60;;;;;;;10.83;100.00;101378.91;690012;28;1414;-63
2023/09/26 01:08:16;;;;;;;5.17;3.40;;;;;;;10.82;100.00;101375.38;684679;28;1543;-65
2023/09/26 01:08:37;;;;;;;5.68;3.50;;;;;;;10.81;100.00;101378.00;687132;28;1164;-65
2023/09/26 01:08:58;;;;;;;5.78;3.80;;;;;;;10.80;100.00;101371.00;685022;28;1309;-65
2023/09/26 01:09:19;;;;;;;4.72;3.40;;;;;;;10.80;100.00;101368.41;683155;28;1424;-65
2023/09/26 01:09:39;;;;;;;4.87;3.30;;;;;;;10.78;100.00;101376.25;684537;28;1016;-65
2023/09/26 01:10:00;;;;;;;5.30;3.47;;;;;;;10.78;100.00;101368.41;684763;28;4876;-65
2023/09/26 01:10:21;;;;;;;5.45;3.50;;;;;;;10.77;100.00;101374.47;686136;28;1752;-65
2023/09/26 01:10:42;;;;;;;5.38;3.40;;;;;;;10.76;100.00;101371.84;688555;28;937;-65
2023/09/26 01:11:03;;;;;;;6.93;3.40;;;;;;;10.75;100.00;101373.63;692005;28;2511;-65
2023/09/26 01:11:24;;;;;;;5.25;3.30;;;;;;;10.73;100.00;101371.00;689190;28;1558;-65
2023/09/26 01:11:45;;;;;;;4.97;3.20;;;;;;;10.75;100.00;101371.00;690139;28;816;-65
2023/09/26 01:12:05;;;;;;;4.50;3.10;;;;;;;10.75;100.00;101373.63;689270;28;1347;-65
2023/09/26 01:12:29;;;;;;;4.80;3.40;;;;;;;10.76;100.00;101375.38;689647;28;946;-65
2023/09/26 01:12:50;;;;;;;5.97;3.47;;;;;;;10.75;100.00;101368.38;689505;28;5148;-65
2023/09/26 01:13:11;;;;;;;6.47;3.60;;;;;;;10.76;100.00;101375.38;689145;28;4238;-68
2023/09/26 01:13:31;;;;;;;5.60;3.35;;;;;;;10.76;100.00;101372.75;691445;28;1460;-65
2023/09/26 01:13:51;;;;;;;6.07;3.20;;;;;;;10.74;100.00;101369.25;691867;28;830;-64
2023/09/26 01:14:12;;;;;;;5.40;3.40;;;;;;;10.71;100.00;101371.84;686662;28;2352;-65
2023/09/26 01:14:32;;;;;;;6.07;3.40;;;;;;;10.70;100.00;101370.97;683099;28;1166;-65
2023/09/26 01:14:54;;;;;;;5.30;3.20;;;;;;;10.68;100.00;101371.84;683107;28;1237;-64
2023/09/26 01:15:42;;;;;;;5.35;3.30;;;;;;;10.68;100.00;101375.31;682277;28;2198;-65
2023/09/26 01:16:15;;;;;;;5.15;3.47;;;;;;;10.64;100.00;101370.06;683264;28;4517;-65
2023/09/26 01:16:35;;;;;;;6.07;3.55;;;;;;;10.60;100.00;101366.53;686697;28;1591;-65
2023/09/26 01:16:56;;;;;;;5.60;3.60;;;;;;;10.60;100.00;101373.53;686959;28;1220;-65
2023/09/26 01:17:16;;;;;;;5.63;3.72;;;;;;;10.60;100.00;101373.53;688462;28;1843;-65
2023/09/26 01:17:37;;;;;;;6.90;4.00;;;;;;;10.61;100.00;101367.44;690220;28;900;-65
2023/09/26 01:17:57;;;;;;;5.70;3.60;;;;;;;10.60;100.00;101363.06;688249;28;1041;-65
2023/09/26 01:18:23;;;;;;;6.15;3.50;;;;;;;10.59;100.00;101370.00;687882;28;1590;-65
2023/09/26 01:18:44;;;;;;;6.07;3.40;;;;;;;10.59;100.00;101366.53;688506;28;873;-65
2023/09/26 01:19:05;;;;;;;5.80;3.78;;;;;;;10.59;100.00;101369.16;688018;28;4411;-65
2023/09/26 01:19:26;;;;;;;5.47;3.70;;;;;;;10.60;100.00;101368.28;688494;28;870;-64
2023/09/26 01:19:47;;;;;;;5.50;3.67;;;;;;;10.59;100.00;101366.53;689928;28;1086;-65
2023/09/26 01:20:12;;;;;;;5.00;3.53;;;;;;;10.59;100.00;101367.41;687914;28;2348;-64
2023/09/26 01:20:34;;;;;;;4.53;3.38;;;;;;;10.58;100.00;101368.28;690487;28;903;-65
2023/09/26 01:20:54;;;;;;;4.90;3.40;;;;;;;10.56;100.00;101363.06;686672;28;2042;-65
2023/09/26 01:21:15;;;;;;;4.70;3.45;;;;;;;10.56;100.00;101365.66;685557;28;2465;-65
2023/09/26 01:21:36;;;;;;;5.10;3.30;;;;;;;10.57;100.00;101359.53;683563;28;1285;-64
2023/09/26 01:21:57;;;;;;;5.65;3.50;;;;;;;10.58;100.00;101360.44;682905;28;4379;-64
2023/09/26 01:22:18;;;;;;;5.55;3.30;;;;;;;10.56;100.00;101363.06;683441;28;1772;-65
2023/09/26 01:22:42;;;;;;;5.80;3.40;;;;;;;10.55;100.00;101363.91;683112;28;885;-65
2023/09/26 01:23:08;;;;;;;5.93;3.33;;;;;;;10.56;100.00;101356.94;682554;28;1805;-65
2023/09/26 01:23:30;;;;;;;5.47;3.65;;;;;;;10.55;100.00;101361.28;688080;28;1364;-65
2023/09/26 01:23:53;;;;;;;5.40;3.45;;;;;;;10.54;100.00;101362.16;690223;28;900;-64
2023/09/26 01:24:17;;;;;;;6.00;3.75;;;;;;;10.53;100.00;101362.16;690850;28;1780;-64
2023/09/26 01:24:37;;;;;;;5.78;4.18;;;;;;;10.53;100.00;101360.38;689616;28;1621;-64
2023/09/26 01:24:59;;;;;;;5.15;3.50;;;;;;;10.50;100.00;101368.22;685924;28;4552;-65
2023/09/26 01:25:19;;;;;;;5.50;3.30;;;;;;;10.47;100.00;101362.97;683669;28;2296;-65
2023/09/26 01:25:42;;;;;;;5.07;3.00;;;;;;;10.48;100.00;101369.97;686404;28;1180;-64
2023/09/26 01:26:03;;;;;;;5.10;3.38;;;;;;;10.48;100.00;101356.00;683310;28;1844;-65
2023/09/26 01:26:24;;;;;;;4.57;3.50;;;;;;;10.49;100.00;101363.84;684635;28;1237;-64
2023/09/26 01:26:44;;;;;;;5.32;3.40;;;;;;;10.48;100.00;101362.13;687532;28;877;-65
2023/09/26 01:27:05;;;;;;;4.80;3.20;;;;;;;10.48;100.00;101366.47;686158;28;2437;-65
2023/09/26 01:27:25;;;;;;;5.55;3.50;;;;;;;10.45;100.00;101364.69;686882;28;1915;-65
2023/09/26 01:27:46;;;;;;;6.07;3.50;;;;;;;10.45;100.00;101361.22;687740;28;809;-64
2023/09/26 01:28:08;;;;;;;5.78;3.35;;;;;;;10.45;100.00;101363.84;684976;28;4553;-64
2023/09/26 01:28:28;;;;;;;4.93;3.15;;;;;;;10.44;100.00;101372.53;687121;28;1338;-65
2023/09/26 01:28:48;;;;;;;5.07;3.40;;;;;;;10.45;100.00;101369.91;686063;28;1251;-65
2023/09/26 01:29:10;;;;;;;6.13;3.67;;;;;;;10.43;100.00;101361.22;689155;28;1775;-65
2023/09/26 01:29:31;;;;;;;5.45;3.65;;;;;;;10.43;100.00;101366.44;686892;28;991;-65
2023/09/26 01:29:52;;;;;;;5.53;3.72;;;;;;;10.43;100.00;101363.81;684252;28;1439;-65
2023/09/26 01:30:13;;;;;;;6.55;3.50;;;;;;;10.43;100.00;101361.22;682643;28;1748;-64
2023/09/26 01:30:35;;;;;;;5.72;3.38;;;;;;;10.42;100.00;101367.28;685764;28;1123;-64
2023/09/26 01:30:56;;;;;;;5.53;3.70;;;;;;;10.41;100.00;101368.16;686808;28;4398;-65
2023/09/26 01:31:17;;;;;;;4.65;3.70;;;;;;;10.41;100.00;101360.31;684554;28;1453;-65
2023/09/26 01:31:37;;;;;;;6.17;4.40;;;;;;;10.38;100.00;101368.13;688392;28;1204;-64
2023/09/26 01:31:58;;;;;;;6.33;4.30;;;;;;;10.37;100.00;101366.38;690520;28;888;-64
2023/09/26 01:32:18;;;;;;;5.27;3.60;;;;;;;10.37;100.00;101362.03;688001;28;1720;-64
2023/09/26 01:32:39;;;;;;;5.47;3.60;;;;;;;10.35;100.00;101363.75;689237;28;884;-64
2023/09/26 01:33:02;;;;;;;5.18;3.80;;;;;;;10.36;100.00;101359.41;691788;28;821;-64
2023/09/26 01:33:23;;;;;;;5.00;3.72;;;;;;;10.35;100.00;101365.50;687516;28;2401;-64
2023/09/26 01:33:43;;;;;;;5.10;3.70;;;;;;;10.32;100.00;101352.38;688107;28;840;-64
2023/09/26 01:34:04;;;;;;;4.90;3.40;;;;;;;10.37;100.00;101358.53;687426;28;4364;-65
2023/09/26 01:34:24;;;;;;;5.80;3.70;;;;;;;10.40;100.00;101358.59;684992;28;1134;-64
2023/09/26 01:34:45;;;;;;;6.72;3.85;;;;;;;10.42;100.00;101359.44;686172;28;1255;-64
2023/09/26 01:35:08;;;;;;;5.97;3.63;;;;;;;10.38;100.00;101366.41;685454;28;1734;-64
2023/09/26 01:35:29;;;;;;;5.13;3.58;;;;;;;10.38;100.00;101358.56;690418;28;968;-65
2023/09/26 01:35:51;;;;;;;5.00;3.50;;;;;;;10.38;100.00;101358.56;689803;28;1196;-64
2023/09/26 01:36:12;;;;;;;4.93;3.42;;;;;;;10.39;100.00;101359.44;689871;28;2128;-64
2023/09/26 01:36:33;;;;;;;5.47;3.45;;;;;;;10.40;100.00;101353.34;692366;28;1422;-64
2023/09/26 01:36:54;;;;;;;5.40;3.60;;;;;;;10.42;100.00;101358.59;688134;28;4394;-64
2023/09/26 01:37:14;;;;;;;4.93;3.33;;;;;;;10.38;100.00;101360.28;687617;28;1728;-64
2023/09/26 01:37:35;;;;;;;5.10;3.67;;;;;;;10.37;100.00;101354.19;688714;28;1412;-64
2023/09/26 01:37:56;;;;;;;5.28;3.45;;;;;;;10.39;100.00;101362.06;688172;28;1271;-64
2023/09/26 01:38:18;;;;;;;5.47;3.47;;;;;;;10.39;100.00;101359.44;685699;28;2343;-64
2023/09/26 01:38:38;;;;;;;5.03;3.58;;;;;;;10.39;100.00;101359.44;685200;28;1258;-65
2023/09/26 01:38:59;;;;;;;5.00;3.67;;;;;;;10.38;100.00;101361.19;683429;28;5436;-64
2023/09/26 01:39:19;;;;;;;5.75;3.60;;;;;;;10.37;100.00;101350.69;685949;28;1747;-64
2023/09/26 01:39:40;;;;;;;4.88;3.60;;;;;;;10.37;100.00;101367.28;685138;28;1269;-64
2023/09/26 01:40:00;;;;;;;4.70;3.40;;;;;;;10.34;100.00;101355.88;684855;28;4559;-64
2023/09/26 01:40:20;;;;;;;4.47;3.33;;;;;;;10.33;100.00;101355.00;682031;28;2569;-64
2023/09/26 01:40:41;;;;;;;5.22;3.53;;;;;;;10.33;100.00;101365.47;686840;28;1015;-64